createdAt,value
2023-05-25T00:01:59.045Z,5.28
2023-05-25T00:04:30.761Z,4.47
2023-05-25T00:06:58.957Z,4.32
2023-05-25T00:09:27.466Z,4.75
2023-05-25T00:11:56.024Z,4.50
2023-05-25T00:14:24.158Z,4.07
2023-05-25T00:16:54.117Z,4.28
2023-05-25T00:19:22.589Z,4.68
2023-05-25T00:21:51.247Z,4.70
2023-05-25T00:24:19.421Z,4.72
2023-05-25T00:26:47.552Z,4.35
2023-05-25T00:29:16.660Z,4.70
2023-05-25T00:31:44.781Z,3.95
2023-05-25T00:34:14.344Z,4.85
2023-05-25T00:36:43.876Z,4.95
2023-05-25T00:39:12.046Z,4.35
2023-05-25T00:41:41.807Z,4.45
2023-05-25T00:44:10.496Z,3.90
2023-05-25T00:46:39.752Z,4.38
2023-05-25T00:49:08.206Z,5.00
2023-05-25T00:51:37.787Z,4.32
2023-05-25T00:54:06.526Z,5.03
2023-05-25T00:56:40.038Z,4.90
2023-05-25T00:59:11.390Z,5.35
2023-05-25T01:01:41.490Z,4.43
2023-05-25T01:04:13.415Z,5.05
2023-05-25T01:06:48.010Z,4.95
2023-05-25T01:09:20.894Z,4.40
2023-05-25T01:11:52.868Z,4.30
2023-05-25T01:14:22.459Z,4.10
2023-05-25T01:16:51.839Z,4.65
2023-05-25T01:19:20.541Z,4.38
2023-05-25T01:21:57.851Z,5.00
2023-05-25T01:24:33.816Z,5.03
2023-05-25T01:27:08.982Z,4.47
2023-05-25T01:29:41.291Z,4.88
2023-05-25T01:32:10.651Z,5.03
2023-05-25T01:34:40.966Z,5.15
2023-05-25T01:37:13.512Z,4.97
2023-05-25T01:39:42.200Z,4.32
2023-05-25T01:42:10.529Z,5.53
2023-05-25T01:44:40.307Z,6.00
2023-05-25T01:47:16.724Z,6.00
2023-05-25T01:49:53.264Z,5.13
2023-05-25T01:52:27.590Z,4.72
2023-05-25T01:55:06.525Z,5.30
2023-05-25T01:57:37.874Z,5.57
2023-05-25T02:00:08.380Z,4.97
2023-05-25T02:02:38.217Z,5.47
2023-05-25T02:05:07.379Z,5.55
2023-05-25T02:07:37.692Z,5.32
2023-05-25T02:10:06.557Z,5.22
2023-05-25T02:12:34.732Z,6.15
2023-05-25T02:15:03.196Z,5.25
2023-05-25T02:17:31.341Z,5.35
2023-05-25T02:19:59.643Z,5.70
2023-05-25T02:22:27.808Z,5.90
2023-05-25T02:24:57.362Z,5.20
2023-05-25T02:27:26.314Z,5.45
2023-05-25T02:29:54.492Z,4.90
2023-05-25T02:32:22.703Z,5.95
2023-05-25T02:34:51.001Z,5.72
2023-05-25T02:37:19.181Z,5.95
2023-05-25T02:39:47.295Z,5.28
2023-05-25T02:42:16.864Z,6.15
2023-05-25T02:44:48.331Z,5.70
2023-05-25T02:47:16.752Z,5.80
2023-05-25T02:49:45.441Z,4.63
2023-05-25T02:52:13.879Z,5.43
2023-05-25T02:54:42.628Z,4.90
2023-05-25T02:57:11.113Z,5.20
2023-05-25T02:59:40.916Z,5.57
2023-05-25T03:02:09.349Z,5.32
2023-05-25T03:04:37.990Z,5.90
2023-05-25T03:07:06.790Z,5.40
2023-05-25T03:09:34.934Z,5.47
2023-05-25T03:12:03.107Z,5.40
2023-05-25T03:14:31.554Z,5.30
2023-05-25T03:17:01.411Z,5.60
2023-05-25T03:19:30.284Z,4.80
2023-05-25T03:21:58.474Z,5.70
2023-05-25T03:24:27.012Z,5.72
2023-05-25T03:26:55.173Z,5.05
2023-05-25T03:29:23.755Z,5.40
2023-05-25T03:31:52.189Z,4.82
2023-05-25T03:34:21.767Z,5.88
2023-05-25T03:36:50.259Z,5.32
2023-05-25T03:39:18.420Z,5.85
2023-05-25T03:41:46.925Z,6.70
2023-05-25T03:44:15.260Z,6.65
2023-05-25T03:46:43.832Z,6.40
2023-05-25T03:49:14.263Z,5.38
2023-05-25T03:51:44.539Z,7.00
2023-05-25T03:54:13.151Z,7.85
2023-05-25T03:56:41.663Z,6.25
2023-05-25T03:59:10.094Z,6.90
2023-05-25T04:01:38.979Z,6.72
2023-05-25T04:04:08.174Z,6.53
2023-05-25T04:06:37.572Z,6.25
2023-05-25T04:09:07.796Z,6.35
2023-05-25T04:11:36.008Z,6.75
2023-05-25T04:14:04.221Z,5.22
2023-05-25T04:16:32.779Z,6.40
2023-05-25T04:19:00.976Z,6.65
2023-05-25T04:21:29.741Z,6.50
2023-05-25T04:23:57.861Z,7.32
2023-05-25T04:26:27.613Z,6.22
2023-05-25T04:28:56.170Z,6.43
2023-05-25T04:31:25.369Z,6.32
2023-05-25T04:33:56.134Z,6.05
2023-05-25T04:36:25.110Z,6.45
2023-05-25T04:38:54.837Z,6.60
2023-05-25T04:41:23.400Z,6.15
2023-05-25T04:44:06.958Z,6.47
2023-05-25T04:46:39.398Z,5.47
2023-05-25T04:49:08.571Z,5.43
2023-05-25T04:51:37.235Z,6.63
2023-05-25T04:54:06.059Z,6.55
2023-05-25T04:56:34.585Z,6.40
2023-05-25T04:59:04.419Z,5.40
2023-05-25T05:01:34.655Z,6.28
2023-05-25T05:04:03.021Z,5.60
2023-05-25T05:06:32.696Z,5.38
2023-05-25T05:09:01.256Z,5.28
2023-05-25T05:11:30.073Z,5.97
2023-05-25T05:13:59.233Z,5.72
2023-05-25T05:16:34.202Z,6.30
2023-05-25T05:19:03.406Z,5.32
2023-05-25T05:21:32.582Z,6.28
2023-05-25T05:24:00.717Z,5.50
2023-05-25T05:26:29.078Z,4.47
2023-05-25T05:28:57.196Z,5.28
2023-05-25T05:31:27.726Z,4.93
2023-05-25T05:33:57.342Z,5.47
2023-05-25T05:36:26.030Z,5.60
2023-05-25T05:38:54.566Z,5.57
2023-05-25T05:41:23.841Z,5.28
2023-05-25T05:43:52.320Z,5.47
2023-05-25T05:46:21.086Z,6.70
2023-05-25T05:48:49.552Z,5.57
2023-05-25T05:51:19.045Z,5.20
2023-05-25T05:53:47.210Z,6.10
2023-05-25T05:56:18.852Z,5.72
2023-05-25T05:58:50.064Z,6.10
2023-05-25T06:01:18.232Z,5.32
2023-05-25T06:03:47.552Z,5.28
2023-05-25T06:06:16.324Z,5.82
2023-05-25T06:08:46.142Z,5.75
2023-05-25T06:11:14.485Z,6.40
2023-05-25T06:13:43.431Z,6.65
2023-05-25T06:16:13.701Z,7.28
2023-05-25T06:18:41.899Z,7.05
2023-05-25T06:21:10.789Z,6.75
2023-05-25T06:23:40.463Z,7.45
2023-05-25T06:26:10.004Z,7.75
2023-05-25T06:28:38.522Z,7.35
2023-05-25T06:31:06.804Z,8.18
2023-05-25T06:33:34.960Z,8.60
2023-05-25T06:36:04.962Z,8.05
2023-05-25T06:38:34.011Z,8.82
2023-05-25T06:41:03.775Z,8.55
2023-05-25T06:43:33.287Z,9.00
2023-05-25T06:46:01.901Z,7.97
2023-05-25T06:48:30.063Z,7.80
2023-05-25T06:50:58.577Z,8.52
2023-05-25T06:53:26.725Z,8.40
2023-05-25T06:55:55.207Z,9.00
2023-05-25T06:58:23.645Z,8.27
2023-05-25T07:00:53.648Z,8.93
2023-05-25T07:03:21.971Z,9.85
2023-05-25T07:05:50.800Z,9.35
2023-05-25T07:08:18.940Z,7.38
2023-05-25T07:10:49.214Z,7.35
2023-05-25T07:13:18.309Z,8.57
2023-05-25T07:15:47.621Z,7.05
2023-05-25T07:18:17.415Z,8.50
2023-05-25T07:20:45.806Z,8.27
2023-05-25T07:23:14.369Z,7.55
2023-05-25T07:25:43.421Z,8.80
2023-05-25T07:28:11.720Z,8.02
2023-05-25T07:30:40.318Z,8.55
2023-05-25T07:33:08.519Z,7.70
2023-05-25T07:35:38.429Z,7.80
2023-05-25T07:38:06.750Z,8.48
2023-05-25T07:40:35.291Z,8.07
2023-05-25T07:43:03.891Z,6.50
2023-05-25T07:45:32.950Z,8.05
2023-05-25T07:48:01.399Z,7.28
2023-05-25T07:50:31.663Z,7.05
2023-05-25T07:53:01.774Z,6.13
2023-05-25T07:55:29.905Z,7.60
2023-05-25T07:57:58.362Z,6.93
2023-05-25T08:00:26.578Z,7.43
2023-05-25T08:02:54.813Z,7.18
2023-05-25T08:05:23.182Z,7.35
2023-05-25T08:07:51.342Z,7.78
2023-05-25T08:10:21.278Z,7.07
2023-05-25T08:12:51.212Z,7.57
2023-05-25T08:15:20.541Z,6.72
2023-05-25T08:17:51.151Z,7.43
2023-05-25T08:20:19.763Z,7.40
2023-05-25T08:22:47.936Z,7.20
2023-05-25T08:25:16.112Z,6.75
2023-05-25T08:27:45.938Z,6.68
2023-05-25T08:30:14.314Z,5.75
2023-05-25T08:32:42.829Z,6.95
2023-05-25T08:35:13.970Z,6.80
2023-05-25T08:37:43.742Z,5.72
2023-05-25T08:40:17.091Z,6.43
2023-05-25T08:42:47.643Z,6.50
2023-05-25T08:45:30.573Z,5.68
2023-05-25T08:48:05.233Z,7.25
2023-05-25T08:50:34.798Z,6.95
2023-05-25T08:53:06.644Z,7.03
2023-05-25T08:55:37.239Z,7.10
2023-05-25T08:58:16.594Z,6.47
2023-05-25T09:00:53.315Z,6.70
2023-05-25T09:03:22.195Z,7.43
2023-05-25T09:05:51.832Z,7.00
2023-05-25T09:08:21.473Z,7.32
2023-05-25T09:10:50.275Z,6.93
2023-05-25T09:13:22.769Z,7.30
2023-05-25T09:15:52.431Z,7.22
2023-05-25T09:18:20.960Z,6.45
2023-05-25T09:20:49.588Z,6.20
2023-05-25T09:23:18.770Z,6.75
2023-05-25T09:25:51.392Z,6.95
2023-05-25T09:30:53.650Z,6.43
2023-05-25T09:33:22.263Z,5.78
2023-05-25T09:35:51.534Z,5.88
2023-05-25T09:38:19.982Z,5.70
2023-05-25T09:40:48.995Z,5.60
2023-05-25T09:43:28.858Z,5.63
2023-05-25T09:46:02.377Z,5.03
2023-05-25T09:48:30.993Z,5.57
2023-05-25T09:50:59.579Z,5.10
2023-05-25T09:53:28.693Z,5.93
2023-05-25T09:55:58.371Z,5.72
2023-05-25T09:58:28.802Z,5.88
2023-05-25T10:00:57.059Z,5.75
2023-05-25T10:03:26.660Z,5.80
2023-05-25T10:05:56.521Z,5.28
2023-05-25T10:08:28.606Z,5.78
2023-05-25T10:10:57.275Z,5.80
2023-05-25T10:13:28.830Z,5.22
2023-05-25T10:15:58.173Z,6.25
2023-05-25T10:18:30.241Z,5.18
2023-05-25T10:21:03.796Z,4.30
2023-05-25T10:23:42.189Z,5.85
2023-05-25T10:26:11.227Z,5.55
2023-05-25T10:28:41.868Z,5.47
2023-05-25T10:31:11.097Z,3.95
2023-05-25T10:33:41.638Z,5.22
2023-05-25T10:36:13.787Z,5.47
2023-05-25T10:38:44.657Z,4.57
2023-05-25T10:41:13.724Z,4.65
2023-05-25T10:43:42.467Z,5.22
2023-05-25T10:46:11.923Z,4.85
2023-05-25T10:48:47.273Z,5.50
2023-05-25T10:51:15.870Z,5.57
2023-05-25T10:53:50.845Z,5.78
2023-05-25T10:56:19.072Z,5.30
2023-05-25T10:58:48.014Z,5.68
2023-05-25T11:01:17.290Z,5.35
2023-05-25T11:04:15.723Z,4.97
2023-05-25T11:07:08.456Z,4.40
2023-05-25T11:09:44.266Z,4.72
2023-05-25T11:12:22.790Z,4.90
2023-05-25T11:15:18.855Z,5.53
2023-05-25T11:17:59.147Z,4.70
2023-05-25T11:20:31.280Z,5.38
2023-05-25T11:23:00.031Z,4.80
2023-05-25T11:25:39.579Z,4.57
2023-05-25T11:28:10.989Z,4.68
2023-05-25T11:30:42.426Z,4.43
2023-05-25T11:33:11.150Z,5.28
2023-05-25T11:35:41.653Z,4.28
2023-05-25T11:38:10.458Z,4.25
2023-05-25T11:40:47.791Z,4.03
2023-05-25T11:43:16.648Z,4.10
2023-05-25T11:45:45.483Z,4.47
2023-05-25T11:48:16.167Z,4.22
2023-05-25T11:50:46.070Z,3.92
2023-05-25T11:53:15.075Z,3.60
2023-05-25T11:55:52.100Z,4.00
2023-05-25T11:58:22.064Z,4.10
2023-05-25T12:00:50.398Z,3.47
2023-05-25T12:03:31.837Z,3.80
2023-05-25T12:06:02.462Z,4.38
2023-05-25T12:08:33.915Z,3.67
2023-05-25T12:11:02.189Z,3.50
2023-05-25T12:13:31.124Z,3.22
2023-05-25T12:16:00.325Z,3.88
2023-05-25T12:18:29.796Z,4.72
2023-05-25T12:20:58.745Z,3.78
2023-05-25T12:23:28.434Z,3.90
2023-05-25T12:26:10.514Z,4.05
2023-05-25T12:28:38.979Z,3.85
2023-05-25T12:31:23.186Z,3.50
2023-05-25T12:34:05.696Z,3.75
2023-05-25T12:36:45.577Z,3.13
2023-05-25T12:39:16.791Z,3.58
2023-05-25T12:41:51.794Z,3.97
2023-05-25T12:44:25.640Z,3.67
2023-05-25T12:46:56.027Z,3.83
2023-05-25T12:49:31.973Z,3.90
2023-05-25T12:52:02.195Z,3.45
2023-05-25T12:54:44.078Z,3.30
2023-05-25T12:57:14.565Z,3.90
2023-05-25T12:59:44.242Z,3.20
2023-05-25T13:02:13.501Z,3.38
2023-05-25T13:04:42.834Z,3.75
2023-05-25T13:07:11.161Z,3.63
2023-05-25T13:09:41.028Z,3.50
2023-05-25T13:12:09.847Z,3.25
2023-05-25T13:14:38.022Z,3.10
2023-05-25T13:17:06.748Z,2.92
2023-05-25T13:19:34.862Z,2.88
2023-05-25T13:22:03.358Z,2.70
2023-05-25T13:24:31.917Z,2.70
2023-05-25T13:27:01.755Z,2.92
2023-05-25T13:29:30.273Z,2.58
2023-05-25T13:31:58.410Z,2.75
2023-05-25T13:34:26.564Z,2.33
2023-05-25T13:36:55.685Z,2.75
2023-05-25T13:39:23.842Z,2.30
2023-05-25T13:41:52.237Z,2.50
2023-05-25T13:44:21.997Z,2.70
2023-05-25T13:46:50.448Z,2.80
2023-05-25T13:49:19.847Z,2.47
2023-05-25T13:51:48.078Z,1.95
2023-05-25T13:54:16.207Z,2.33
2023-05-25T13:56:44.643Z,1.95
2023-05-25T13:59:13.121Z,2.55
2023-05-25T14:01:42.934Z,2.08
2023-05-25T14:04:11.779Z,2.47
2023-05-25T14:06:40.073Z,2.67
2023-05-25T14:09:08.531Z,2.35
2023-05-25T14:11:36.961Z,2.35
2023-05-25T14:14:11.481Z,2.00
2023-05-25T14:16:46.518Z,2.25
2023-05-25T14:19:16.723Z,2.00
2023-05-25T14:21:45.041Z,2.30
2023-05-25T14:24:13.473Z,1.83
2023-05-25T14:26:42.958Z,2.28
2023-05-25T14:29:12.964Z,2.03
2023-05-25T14:31:41.332Z,2.65
2023-05-25T14:34:10.974Z,2.67
2023-05-25T14:36:39.424Z,2.20
2023-05-25T14:39:08.353Z,2.03
2023-05-25T14:41:37.442Z,2.15
2023-05-25T14:44:05.973Z,2.20
2023-05-25T14:46:35.253Z,2.05
2023-05-25T14:49:03.533Z,2.03
2023-05-25T14:51:33.032Z,2.20
2023-05-25T14:54:04.022Z,2.10
2023-05-25T14:56:32.438Z,2.05
2023-05-25T14:59:00.600Z,2.25
2023-05-25T15:01:29.789Z,1.90
2023-05-25T15:03:58.389Z,2.05
2023-05-25T15:06:26.579Z,2.22
2023-05-25T15:08:56.455Z,2.10
2023-05-25T15:11:24.824Z,2.28
2023-05-25T15:13:53.255Z,2.50
2023-05-25T15:16:21.546Z,2.33
2023-05-25T15:18:51.343Z,2.40
2023-05-25T15:21:19.554Z,2.30
2023-05-25T15:23:48.313Z,2.53
2023-05-25T15:26:17.987Z,2.25
2023-05-25T15:28:46.110Z,2.10
2023-05-25T15:31:14.331Z,2.08
2023-05-25T15:33:51.533Z,2.22
2023-05-25T15:36:22.266Z,2.17
2023-05-25T15:38:50.449Z,2.08
2023-05-25T15:41:19.998Z,2.38
2023-05-25T15:43:52.015Z,2.30
2023-05-25T15:46:20.257Z,2.35
2023-05-25T15:48:48.739Z,2.13
2023-05-25T15:51:17.144Z,1.90
2023-05-25T15:53:45.335Z,2.33
2023-05-25T15:56:13.554Z,2.30
2023-05-25T15:58:47.278Z,2.50
2023-05-25T16:01:15.472Z,2.10
2023-05-25T16:03:44.935Z,2.08
2023-05-25T16:06:13.291Z,2.22
2023-05-25T16:08:41.462Z,2.47
2023-05-25T16:11:09.648Z,2.00
2023-05-25T16:13:38.065Z,1.88
2023-05-25T16:16:08.522Z,2.10
2023-05-25T16:18:37.098Z,1.77
2023-05-25T16:21:05.589Z,2.20
2023-05-25T16:23:34.871Z,2.28
2023-05-25T16:26:03.704Z,2.53
2023-05-25T16:28:31.868Z,2.05
2023-05-25T16:30:59.984Z,2.00
2023-05-25T16:33:29.533Z,2.13
2023-05-25T16:35:57.782Z,2.03
2023-05-25T16:38:26.318Z,2.00
2023-05-25T16:40:54.452Z,1.92
2023-05-25T16:43:25.492Z,2.00
2023-05-25T16:45:53.675Z,2.00
2023-05-25T16:48:23.266Z,1.90
2023-05-25T16:50:52.879Z,2.00
2023-05-25T16:53:21.316Z,1.83
2023-05-25T16:55:49.809Z,2.05
2023-05-25T16:58:17.998Z,2.20
2023-05-25T17:00:46.166Z,2.10
2023-05-25T17:03:14.448Z,2.13
2023-05-25T17:05:42.937Z,1.90
2023-05-25T17:08:12.558Z,2.03
2023-05-25T17:10:41.316Z,2.28
2023-05-25T17:13:09.464Z,2.10
2023-05-25T17:15:37.905Z,2.17
2023-05-25T17:18:07.105Z,2.10
2023-05-25T17:20:35.698Z,1.90
2023-05-25T17:23:03.990Z,2.05
2023-05-25T17:25:34.326Z,2.00
2023-05-25T17:28:02.675Z,1.75
2023-05-25T17:30:30.901Z,1.95
2023-05-25T17:33:01.684Z,2.30
2023-05-25T17:35:30.321Z,2.15
2023-05-25T17:37:58.537Z,2.05
2023-05-25T17:40:26.709Z,2.20
2023-05-25T17:42:56.298Z,1.98
2023-05-25T17:45:24.533Z,2.08
2023-05-25T17:47:53.173Z,2.10
2023-05-25T17:50:21.344Z,2.45
2023-05-25T17:52:49.510Z,2.40
2023-05-25T17:55:17.739Z,2.08
2023-05-25T17:57:45.866Z,2.25
2023-05-25T18:00:20.290Z,1.92
2023-05-25T18:02:49.475Z,2.22
2023-05-25T18:05:17.666Z,2.08
2023-05-25T18:07:45.843Z,2.25
2023-05-25T18:10:14.655Z,2.42
2023-05-25T18:12:44.537Z,2.20
2023-05-25T18:15:14.927Z,2.25
2023-05-25T18:17:43.151Z,2.20
2023-05-25T18:20:12.306Z,2.08
2023-05-25T18:22:41.354Z,2.53
2023-05-25T18:25:10.267Z,2.28
2023-05-25T18:27:38.829Z,2.78
2023-05-25T18:30:08.250Z,2.25
2023-05-25T18:32:37.892Z,2.50
2023-05-25T18:35:06.864Z,2.30
2023-05-25T18:37:36.106Z,2.22
2023-05-25T18:40:04.598Z,2.08
2023-05-25T18:42:33.091Z,2.13
2023-05-25T18:45:01.418Z,2.15
2023-05-25T18:47:29.856Z,2.30
2023-05-25T18:49:59.377Z,2.58
2023-05-25T18:52:27.573Z,2.63
2023-05-25T18:54:55.750Z,2.78
2023-05-25T18:57:23.926Z,2.67
2023-05-25T18:59:52.453Z,2.40
2023-05-25T19:02:21.296Z,2.38
2023-05-25T19:04:49.591Z,2.22
2023-05-25T19:07:19.168Z,2.47
2023-05-25T19:09:48.186Z,2.13
2023-05-25T19:12:16.530Z,2.47
2023-05-25T19:14:44.709Z,2.38
2023-05-25T19:17:13.051Z,2.30
2023-05-25T19:19:41.528Z,2.10
2023-05-25T19:22:10.321Z,2.17
2023-05-25T19:24:42.643Z,2.53
2023-05-25T19:27:12.527Z,1.95
2023-05-25T19:29:41.067Z,2.17
2023-05-25T19:32:09.284Z,2.33
2023-05-25T19:34:37.666Z,2.30
2023-05-25T19:37:11.561Z,2.10
2023-05-25T19:39:41.747Z,2.40
2023-05-25T19:42:09.985Z,1.95
2023-05-25T19:44:40.625Z,2.33
2023-05-25T19:47:08.872Z,2.40
2023-05-25T19:49:37.061Z,2.63
2023-05-25T19:52:05.489Z,2.38
2023-05-25T19:54:33.632Z,2.47
2023-05-25T19:57:03.380Z,2.03
2023-05-25T19:59:31.660Z,2.22
2023-05-25T20:02:00.224Z,2.63
2023-05-25T20:04:28.379Z,2.38
2023-05-25T20:06:56.950Z,2.70
2023-05-25T20:09:30.172Z,2.40
2023-05-25T20:11:59.425Z,2.38
2023-05-25T20:14:30.597Z,2.83
2023-05-25T20:16:58.767Z,2.80
2023-05-25T20:19:26.991Z,2.38
2023-05-25T20:21:55.301Z,2.63
2023-05-25T20:24:23.451Z,2.78
2023-05-25T20:26:56.914Z,2.40
2023-05-25T20:29:25.257Z,2.70
2023-05-25T20:31:55.372Z,2.40
2023-05-25T20:34:23.541Z,2.90
2023-05-25T20:36:51.661Z,2.80
2023-05-25T20:39:20.533Z,2.90
2023-05-25T20:41:48.657Z,3.05
2023-05-25T20:44:17.162Z,2.92
2023-05-25T20:46:45.668Z,3.40
2023-05-25T20:49:15.170Z,3.50
2023-05-25T20:51:44.760Z,3.13
2023-05-25T20:54:13.386Z,3.22
2023-05-25T20:56:41.867Z,3.10
2023-05-25T20:59:10.321Z,2.97
2023-05-25T21:01:38.992Z,3.00
2023-05-25T21:04:07.358Z,2.80
2023-05-25T21:06:37.604Z,3.30
2023-05-25T21:09:06.077Z,3.40
2023-05-25T21:11:34.410Z,4.13
2023-05-25T21:14:03.536Z,2.72
2023-05-25T21:16:32.335Z,3.63
2023-05-25T21:19:00.494Z,3.35
2023-05-25T21:21:29.240Z,2.80
2023-05-25T21:23:58.727Z,2.58
2023-05-25T21:26:27.288Z,3.60
2023-05-25T21:28:55.465Z,3.63
2023-05-25T21:31:25.194Z,3.20
2023-05-25T21:33:54.276Z,3.70
2023-05-25T21:36:22.827Z,3.58
2023-05-25T21:38:51.154Z,3.75
2023-05-25T21:41:21.028Z,3.20
2023-05-25T21:43:49.188Z,3.47
2023-05-25T21:46:17.640Z,3.35
2023-05-25T21:48:45.789Z,3.33
2023-05-25T21:51:13.975Z,3.70
2023-05-25T21:53:42.092Z,3.70
2023-05-25T21:56:10.399Z,3.30
2023-05-25T21:58:40.186Z,3.05
2023-05-25T22:01:08.684Z,3.05
2023-05-25T22:03:36.968Z,3.03
2023-05-25T22:06:05.284Z,3.67
2023-05-25T22:08:33.830Z,3.65
2023-05-25T22:11:01.967Z,3.20
2023-05-25T22:13:30.135Z,3.22
2023-05-25T22:15:59.924Z,3.47
2023-05-25T22:18:28.092Z,3.40
2023-05-25T22:20:56.309Z,3.08
2023-05-25T22:23:24.801Z,3.70
2023-05-25T22:25:53.053Z,3.60
2023-05-25T22:28:21.209Z,3.65
2023-05-25T22:30:49.819Z,3.47
2023-05-25T22:33:19.369Z,3.22
2023-05-25T22:35:47.928Z,2.80
2023-05-25T22:38:16.099Z,3.53
2023-05-25T22:40:48.043Z,3.85
2023-05-25T22:43:16.698Z,3.53
2023-05-25T22:45:45.137Z,2.92
2023-05-25T22:48:13.703Z,3.35
2023-05-25T22:50:43.381Z,3.67
2023-05-25T22:53:11.520Z,4.03
2023-05-25T22:55:40.145Z,2.90
2023-05-25T22:58:08.520Z,3.67
2023-05-25T23:00:36.979Z,3.55
2023-05-25T23:03:05.635Z,2.75
2023-05-25T23:05:34.166Z,3.70
2023-05-25T23:08:04.098Z,3.17
2023-05-25T23:10:32.219Z,3.15
2023-05-25T23:13:00.523Z,3.88
2023-05-25T23:15:31.243Z,3.15
2023-05-25T23:17:59.464Z,3.25
2023-05-25T23:20:27.963Z,3.97
2023-05-25T23:22:58.945Z,3.72
2023-05-25T23:25:28.448Z,2.92
2023-05-25T23:27:56.604Z,3.35
2023-05-25T23:30:25.269Z,3.50
2023-05-25T23:32:53.894Z,3.10
2023-05-25T23:35:22.950Z,3.17
2023-05-25T23:37:52.265Z,3.50
2023-05-25T23:40:20.438Z,3.17
2023-05-25T23:42:50.229Z,3.28
2023-05-25T23:45:18.422Z,3.88
2023-05-25T23:47:46.893Z,3.50
2023-05-25T23:50:15.531Z,3.75
2023-05-25T23:52:43.686Z,3.90
2023-05-25T23:55:11.870Z,5.00
2023-05-25T23:57:40.673Z,5.20
